aviador You're here:

CYFS Decoded Metar

FORT SIMPSON in NT, CANADA
Report Time2017-07-26 04:00:00
UTC Time2017-07-26 04:43:45
Flight Rules vfr VFR
WindCalm
Visibility9999 m
Phenomena:N/A
Clouds:Few 110 Hf
Few 210 Hf
Expected CloudBase > 4,000 ft AGL from Temp-Dew spread
CeilingNone
Temp24°C (ISA +10)
Dew Point14°C (54% RH)
QNH1010 hPa
Density Alt2,041 ft
Elevation554 ft
Report Wrong Elevation
Raw Report
CYFS 260400Z 00000KT 15SM FEW110 FEW210 24/14 A2983 RMK AC1CI2 AC
TR SLP104 DENSITY ALT 1900FT=

Extra information for CYFS:More info

Metar Taf Metar & Taf Last 4 Metars F.Rules Stats Wind Profile Meteogram Temp Stats Airport Information Weather charts Add Link Nearby VenuesMetar ALERT Operation Metar Decoded Social comments